Time;durP1;ratioP1;P1;durP2;ratioP2;P2;SDS_P1;SDS_P2;PMS_P1;PMS_P2;Temp;Humidity;BMP_temperature;BMP_pressure;BME280_temperature;BME280_humidity;BME280_pressure;Samples;Min_cycle;Max_cycle;Signal;HPM_P1;HPM_P2
2023/12/07 00:02:23;;;;;;;;;;;;;;;5.69;nan;101779.63;5033184;28;19925;-84
2023/12/07 00:04:48;;;;;;;;;;;;;;;5.70;nan;101786.59;5032312;28;19929;-85
2023/12/07 00:07:14;;;;;;;;;;;;;;;5.69;nan;101784.94;5032340;28;19925;-85
2023/12/07 00:09:39;;;;;;;;;;;;;;;5.72;nan;101794.38;5030632;28;19925;-84
2023/12/07 00:12:04;;;;;;;;;;;;;;;5.71;nan;101796.22;5033374;28;20581;-85
2023/12/07 00:14:30;;;;;;;;;;;;;;;5.70;nan;101791.91;5031606;28;19931;-86
2023/12/07 00:16:55;;;;;;;;;;;;;;;5.71;nan;101792.72;5030159;28;19921;-85
2023/12/07 00:19:20;;;;;;;;;;;;;;;5.68;nan;101793.94;5031502;28;19925;-85
2023/12/07 00:21:46;;;;;;;;;;;;;;;5.62;nan;101796.53;5030857;28;19935;-85
2023/12/07 00:24:11;;;;;;;;;;;;;;;5.62;nan;101797.38;5032389;28;19931;-85
2023/12/07 00:26:37;;;;;;;;;;;;;;;5.64;nan;101795.34;5032294;28;20444;-85
2023/12/07 00:29:03;;;;;;;;;;;;;;;5.65;nan;101794.31;5031253;28;19925;-85
2023/12/07 00:31:28;;;;;;;;;;;;;;;5.65;nan;101794.31;5030313;28;20297;-85
2023/12/07 00:33:53;;;;;;;;;;;;;;;5.68;nan;101791.28;5032143;28;20349;-85
2023/12/07 00:36:19;;;;;;;;;;;;;;;5.67;nan;101794.13;5032104;28;20460;-85
2023/12/07 00:38:44;;;;;;;;;;;;;;;5.67;nan;101794.94;5031341;28;20275;-85
2023/12/07 00:41:09;;;;;;;;;;;;;;;5.69;nan;101800.06;5029373;28;19963;-86
2023/12/07 00:43:35;;;;;;;;;;;;;;;5.70;nan;101794.56;5027426;28;19925;-85
2023/12/07 00:46:00;;;;;;;;;;;;;;;5.73;nan;101796.84;5028240;28;19927;-85
2023/12/07 00:48:25;;;;;;;;;;;;;;;5.73;nan;101802.16;5032066;28;19924;-85
2023/12/07 00:50:50;;;;;;;;;;;;;;;5.74;nan;101797.66;5031606;28;19935;-85
2023/12/07 00:53:16;;;;;;;;;;;;;;;5.72;nan;101803.16;5013832;28;19932;-85
2023/12/07 00:55:41;;;;;;;;;;;;;;;5.74;nan;101801.19;5028697;28;19932;-85
2023/12/07 00:58:06;;;;;;;;;;;;;;;5.75;nan;101808.13;5032555;28;19999;-85
2023/12/07 01:00:32;;;;;;;;;;;;;;;5.75;nan;101812.63;5031444;28;19932;-89
2023/12/07 01:02:57;;;;;;;;;;;;;;;5.75;nan;101816.13;5030312;28;19925;-85
2023/12/07 01:05:22;;;;;;;;;;;;;;;5.74;nan;101822.44;5031684;28;20468;-86
2023/12/07 01:07:48;;;;;;;;;;;;;;;5.79;nan;101823.72;4955112;28;2173339;-86
2023/12/07 01:10:13;;;;;;;;;;;;;;;5.82;nan;101820.66;5032932;28;20914;-85
2023/12/07 01:12:39;;;;;;;;;;;;;;;5.84;nan;101823.94;5031919;28;19925;-85
2023/12/07 01:15:04;;;;;;;;;;;;;;;5.84;nan;101826.59;5030957;28;19925;-86
2023/12/07 01:17:30;;;;;;;;;;;;;;;5.83;nan;101828.44;5031684;28;20441;-85
2023/12/07 01:19:55;;;;;;;;;;;;;;;5.83;nan;101830.28;5032743;28;20292;-85
2023/12/07 01:22:21;;;;;;;;;;;;;;;5.80;nan;101828.84;5031709;28;19928;-85
2023/12/07 01:24:46;;;;;;;;;;;;;;;5.81;nan;101837.63;5032487;28;20478;-86
2023/12/07 01:27:12;;;;;;;;;;;;;;;5.83;nan;101838.25;5013646;28;19929;-85
2023/12/07 01:29:37;;;;;;;;;;;;;;;5.81;nan;101827.81;5032045;28;20385;-85
2023/12/07 01:32:02;;;;;;;;;;;;;;;5.82;nan;101828.63;5031866;28;20313;-86
2023/12/07 01:34:28;;;;;;;;;;;;;;;5.83;nan;101835.59;5030144;28;20377;-84
2023/12/07 01:36:53;;;;;;;;;;;;;;;5.85;nan;101833.56;5031277;28;20028;-85
2023/12/07 01:39:19;;;;;;;;;;;;;;;5.83;nan;101839.09;5030791;28;19927;-86
2023/12/07 01:41:44;;;;;;;;;;;;;;;5.82;nan;101840.09;5030311;28;19921;-85
2023/12/07 01:44:10;;;;;;;;;;;;;;;5.78;nan;101840.69;5030910;28;20639;-86
2023/12/07 01:46:35;;;;;;;;;;;;;;;5.78;nan;101848.66;5030257;28;20015;-85
2023/12/07 01:49:01;;;;;;;;;;;;;;;5.80;nan;101851.94;5031457;28;19925;-86
2023/12/07 01:51:27;;;;;;;;;;;;;;;5.80;nan;101854.59;5031347;28;19924;-85
2023/12/07 01:53:52;;;;;;;;;;;;;;;5.82;nan;101844.59;5032100;28;20466;-85
2023/12/07 01:56:18;;;;;;;;;;;;;;;5.84;nan;101854.03;5031872;28;20418;-85
2023/12/07 01:58:44;;;;;;;;;;;;;;;5.85;nan;101854.84;5029635;28;19970;-86
2023/12/07 02:01:11;;;;;;;;;;;;;;;5.85;nan;101853.00;5030941;28;19932;-85
2023/12/07 02:03:39;;;;;;;;;;;;;;;5.87;nan;101858.13;5031626;28;19925;-85
2023/12/07 02:06:04;;;;;;;;;;;;;;;5.89;nan;101862.25;5030284;28;19928;-86
2023/12/07 02:08:30;;;;;;;;;;;;;;;5.91;nan;101867.41;5030719;28;19921;-86
2023/12/07 02:10:55;;;;;;;;;;;;;;;5.94;nan;101870.53;5035608;28;19943;-86
2023/12/07 02:13:21;;;;;;;;;;;;;;;5.98;nan;101874.47;5026540;28;20016;-85
2023/12/07 02:15:46;;;;;;;;;;;;;;;5.99;nan;101869.97;5039548;28;20483;-85
2023/12/07 02:18:21;;;;;;;;;;;;;;;5.96;nan;101860.53;5036703;28;20011;-86
2023/12/07 02:21:02;;;;;;;;;;;;;;;5.96;nan;101860.53;5040740;28;19936;-85
2023/12/07 02:23:28;;;;;;;;;;;;;;;5.89;nan;101862.25;5047417;28;19913;-85
2023/12/07 02:26:31;;;;;;;;;;;;;;;5.88;nan;101859.78;5042367;28;20423;-86
2023/12/07 02:28:56;;;;;;;;;;;;;;;5.87;nan;101868.78;5039380;28;19925;-85
2023/12/07 02:31:21;;;;;;;;;;;;;;;5.87;nan;101863.47;5047821;28;19936;-86
2023/12/07 02:33:47;;;;;;;;;;;;;;;5.88;nan;101870.44;5039601;28;19921;-86
2023/12/07 02:36:14;;;;;;;;;;;;;;;5.88;nan;101862.44;5043151;28;19917;-86
2023/12/07 02:38:41;;;;;;;;;;;;;;;5.89;nan;101861.44;5039058;28;19916;-86
2023/12/07 02:41:07;;;;;;;;;;;;;;;5.87;nan;101863.47;5042107;28;19959;-86
2023/12/07 02:43:32;;;;;;;;;;;;;;;5.87;nan;101868.78;5043641;28;19924;-85
2023/12/07 02:45:58;;;;;;;;;;;;;;;5.86;nan;101869.78;5042937;28;19920;-86
2023/12/07 02:48:23;;;;;;;;;;;;;;;5.84;nan;101879.81;5044197;28;19940;-85
2023/12/07 02:50:49;;;;;;;;;;;;;;;5.81;nan;101875.69;5041728;28;19917;-85
2023/12/07 02:53:14;;;;;;;;;;;;;;;5.81;nan;101874.88;5044080;28;20269;-86
2023/12/07 02:55:39;;;;;;;;;;;;;;;5.76;nan;101884.25;5037724;28;20569;-86
2023/12/07 02:58:06;;;;;;;;;;;;;;;5.73;nan;101879.28;5037548;28;19920;-85
2023/12/07 03:00:31;;;;;;;;;;;;;;;5.76;nan;101883.41;5045059;28;19970;-86
2023/12/07 03:02:57;;;;;;;;;;;;;;;5.76;nan;101888.75;5043199;28;19924;-85
2023/12/07 03:05:23;;;;;;;;;;;;;;;5.80;nan;101887.34;5040134;28;20058;-86
2023/12/07 03:07:48;;;;;;;;;;;;;;;5.82;nan;101889.81;5044313;28;19971;-85
2023/12/07 03:10:13;;;;;;;;;;;;;;;5.80;nan;101886.53;5036640;28;19921;-85
2023/12/07 03:12:39;;;;;;;;;;;;;;;5.78;nan;101889.38;5040383;28;19921;-86
2023/12/07 03:15:04;;;;;;;;;;;;;;;5.81;nan;101890.81;5022799;28;20779;-86
2023/12/07 03:17:30;;;;;;;;;;;;;;;5.81;nan;101893.47;5043012;28;20096;-86
2023/12/07 03:19:55;;;;;;;;;;;;;;;5.83;nan;101894.13;5043915;28;19994;-85
2023/12/07 03:22:20;;;;;;;;;;;;;;;5.80;nan;101897.97;5043231;28;20000;-85
2023/12/07 03:24:47;;;;;;;;;;;;;;;5.81;nan;101902.28;5038295;28;19932;-86
2023/12/07 03:27:12;;;;;;;;;;;;;;;5.83;nan;101904.75;5043904;28;19932;-85
2023/12/07 03:29:38;;;;;;;;;;;;;;;5.88;nan;101902.34;5022674;28;19928;-85
2023/12/07 03:32:03;;;;;;;;;;;;;;;5.89;nan;101904.81;5051600;28;19920;-87
2023/12/07 03:34:28;;;;;;;;;;;;;;;5.91;nan;101902.00;5041093;28;19921;-86
2023/12/07 03:36:54;;;;;;;;;;;;;;;5.89;nan;101906.66;5044199;28;19921;-85
2023/12/07 03:39:21;;;;;;;;;;;;;;;5.90;nan;101916.31;5047657;28;20389;-85
2023/12/07 03:41:46;;;;;;;;;;;;;;;5.92;nan;101915.09;5046863;28;19940;-85
2023/12/07 03:44:12;;;;;;;;;;;;;;;5.94;nan;101923.75;5048866;28;19917;-86
2023/12/07 03:46:37;;;;;;;;;;;;;;;5.95;nan;101924.56;5050886;28;19943;-86
2023/12/07 03:49:02;;;;;;;;;;;;;;;5.95;nan;101919.25;5042951;28;19933;-86
2023/12/07 03:51:28;;;;;;;;;;;;;;;5.91;nan;101917.94;5049210;28;19921;-86
2023/12/07 03:53:54;;;;;;;;;;;;;;;5.91;nan;101917.94;5045472;28;19921;-86
2023/12/07 03:56:26;;;;;;;;;;;;;;;5.91;nan;101926.75;5047784;28;19923;-86
2023/12/07 03:58:51;;;;;;;;;;;;;;;5.92;nan;101915.09;5046073;28;20007;-86
2023/12/07 04:01:16;;;;;;;;;;;;;;;5.92;nan;101914.28;5050319;28;20012;-85
2023/12/07 04:03:42;;;;;;;;;;;;;;;5.93;nan;101915.97;5045782;28;19939;-86
2023/12/07 04:06:07;;;;;;;;;;;;;;;5.95;nan;101914.75;5050258;28;20466;-85
2023/12/07 04:08:33;;;;;;;;;;;;;;;5.95;nan;101917.41;5034473;28;19923;-86
2023/12/07 04:10:58;;;;;;;;;;;;;;;5.96;nan;101919.06;5045368;28;20526;-86
2023/12/07 04:13:23;;;;;;;;;;;;;;;5.93;nan;101937.25;5048509;28;20573;-85
2023/12/07 04:15:49;;;;;;;;;;;;;;;5.94;nan;101922.91;5037863;28;20420;-86
2023/12/07 04:18:14;;;;;;;;;;;;;;;5.94;nan;101928.25;5040650;28;19921;-85
2023/12/07 04:20:39;;;;;;;;;;;;;;;5.95;nan;101924.56;5046022;28;19925;-86
2023/12/07 04:23:05;;;;;;;;;;;;;;;5.94;nan;101918.44;5049429;28;19921;-86
2023/12/07 04:25:30;;;;;;;;;;;;;;;5.96;nan;101934.19;5043595;28;19921;-86
2023/12/07 04:27:55;;;;;;;;;;;;;;;5.96;nan;101927.03;5043521;28;19921;-86
2023/12/07 04:30:21;;;;;;;;;;;;;;;6.00;nan;101940.78;5048127;28;19916;-85
2023/12/07 04:32:46;;;;;;;;;;;;;;;5.99;nan;101945.28;5043426;28;20289;-86
2023/12/07 04:35:11;;;;;;;;;;;;;;;5.99;nan;101947.94;5047442;28;20416;-87
2023/12/07 04:37:37;;;;;;;;;;;;;;;5.98;nan;101945.47;5049391;28;19928;-86
2023/12/07 04:40:04;;;;;;;;;;;;;;;5.97;nan;101943.81;5045073;28;19931;-86
2023/12/07 04:42:30;;;;;;;;;;;;;;;5.98;nan;101937.50;5049666;28;19920;-86
2023/12/07 04:44:55;;;;;;;;;;;;;;;5.98;nan;101950.78;5030042;28;20007;-86
2023/12/07 04:47:21;;;;;;;;;;;;;;;5.97;nan;101944.66;5044362;28;19944;-86
2023/12/07 04:49:46;;;;;;;;;;;;;;;5.98;nan;101946.28;5046158;28;20386;-86
2023/12/07 04:52:12;;;;;;;;;;;;;;;6.03;nan;101948.38;5046468;28;19917;-86
2023/12/07 04:54:37;;;;;;;;;;;;;;;6.03;nan;101946.53;5048916;28;20456;-85
2023/12/07 04:57:03;;;;;;;;;;;;;;;6.06;nan;101954.13;5041880;28;19960;-85
2023/12/07 04:59:29;;;;;;;;;;;;;;;6.11;nan;101950.13;5044037;28;20655;-87
2023/12/07 05:01:54;;;;;;;;;;;;;;;6.05;nan;101957.00;5044791;28;20000;-86
2023/12/07 05:04:20;;;;;;;;;;;;;;;6.03;nan;101959.03;5048118;28;20391;-85
2023/12/07 05:06:45;;;;;;;;;;;;;;;6.03;nan;101959.84;5041146;28;20402;-86
2023/12/07 05:09:10;;;;;;;;;;;;;;;6.01;nan;101953.06;5046598;28;19917;-85
2023/12/07 05:11:37;;;;;;;;;;;;;;;5.99;nan;101958.59;5048669;28;19916;-86
2023/12/07 05:14:03;;;;;;;;;;;;;;;6.02;nan;101960.03;5046806;28;19925;-86
2023/12/07 05:16:28;;;;;;;;;;;;;;;6.01;nan;101966.38;5042493;28;19925;-86
2023/12/07 05:18:54;;;;;;;;;;;;;;;6.02;nan;101973.34;5047691;28;19917;-86
2023/12/07 05:21:20;;;;;;;;;;;;;;;6.06;nan;101975.44;5049206;28;19920;-85
2023/12/07 05:23:45;;;;;;;;;;;;;;;6.11;nan;101974.06;5045920;28;19928;-86
2023/12/07 05:26:10;;;;;;;;;;;;;;;6.14;nan;101976.34;5043319;28;20682;-86
2023/12/07 05:28:36;;;;;;;;;;;;;;;6.16;nan;101983.13;5047038;28;19944;-86
2023/12/07 05:31:02;;;;;;;;;;;;;;;6.18;nan;101983.75;5050143;28;19921;-85
2023/12/07 05:33:27;;;;;;;;;;;;;;;6.17;nan;101982.09;5044112;28;19921;-85
2023/12/07 05:35:53;;;;;;;;;;;;;;;6.14;nan;101987.81;5043923;28;20007;-86
2023/12/07 05:38:18;;;;;;;;;;;;;;;6.14;nan;101981.66;5049036;28;19925;-87
2023/12/07 05:40:43;;;;;;;;;;;;;;;6.13;nan;101988.81;5045892;28;20021;-86
2023/12/07 05:43:09;;;;;;;;;;;;;;;6.14;nan;101982.47;5051133;28;19920;-86
2023/12/07 05:45:34;;;;;;;;;;;;;;;6.15;nan;101981.47;5044032;28;19932;-86
2023/12/07 05:47:59;;;;;;;;;;;;;;;6.15;nan;101983.31;5017836;28;19925;-85
2023/12/07 05:50:24;;;;;;;;;;;;;;;6.14;nan;101977.16;5040629;28;19917;-86
2023/12/07 05:52:50;;;;;;;;;;;;;;;6.14;nan;101979.81;5041357;28;19930;-86
2023/12/07 05:55:15;;;;;;;;;;;;;;;6.13;nan;101974.69;5041301;28;19924;-86
2023/12/07 05:57:40;;;;;;;;;;;;;;;6.15;nan;101976.16;5038725;28;19928;-86
2023/12/07 06:00:09;;;;;;;;;;;;;;;6.16;nan;101984.97;5036562;28;19921;-85
2023/12/07 06:02:35;;;;;;;;;;;;;;;6.18;nan;101986.41;5040343;28;19920;-86
2023/12/07 06:05:00;;;;;;;;;;;;;;;6.19;nan;101985.41;5042383;28;20441;-86
2023/12/07 06:07:25;;;;;;;;;;;;;;;6.20;nan;101987.03;5040490;28;19944;-86
2023/12/07 06:09:51;;;;;;;;;;;;;;;6.22;nan;101985.00;5032385;28;19941;-86
2023/12/07 06:12:17;;;;;;;;;;;;;;;6.25;nan;101989.13;5040326;28;19939;-86
2023/12/07 06:14:42;;;;;;;;;;;;;;;6.24;nan;101990.97;5039553;28;19917;-87
2023/12/07 06:17:08;;;;;;;;;;;;;;;6.27;nan;101992.41;5023837;28;19928;-86
2023/12/07 06:19:33;;;;;;;;;;;;;;;6.26;nan;101986.28;5033498;28;19959;-85
2023/12/07 06:21:58;;;;;;;;;;;;;;;6.25;nan;101992.63;5040061;28;20961;-86
2023/12/07 06:24:24;;;;;;;;;;;;;;;6.26;nan;101990.78;5051299;28;19970;-85
2023/12/07 06:26:51;;;;;;;;;;;;;;;6.27;nan;101990.59;5042832;28;19917;-86
2023/12/07 06:29:16;;;;;;;;;;;;;;;6.26;nan;101999.59;5046428;28;19917;-86
2023/12/07 06:31:45;;;;;;;;;;;;;;;6.22;nan;102000.97;5057111;28;19951;-87
2023/12/07 06:34:10;;;;;;;;;;;;;;;6.23;nan;102001.81;5045762;28;19948;-86
2023/12/07 06:36:35;;;;;;;;;;;;;;;6.20;nan;102000.34;5025799;28;19986;-85
2023/12/07 06:39:01;;;;;;;;;;;;;;;6.23;nan;101999.16;5045002;28;19916;-86
2023/12/07 06:41:27;;;;;;;;;;;;;;;6.25;nan;102000.59;5039960;28;19928;-86
2023/12/07 06:43:52;;;;;;;;;;;;;;;6.27;nan;102009.22;5038575;28;19925;-86
2023/12/07 06:46:17;;;;;;;;;;;;;;;6.25;nan;102011.25;5025677;28;19929;-86
2023/12/07 06:48:43;;;;;;;;;;;;;;;6.27;nan;102014.53;5044003;28;19966;-87
2023/12/07 06:51:08;;;;;;;;;;;;;;;6.31;nan;102015.84;5041768;28;20436;-86
2023/12/07 06:53:33;;;;;;;;;;;;;;;6.32;nan;102016.66;5045767;28;20389;-87
2023/12/07 06:55:59;;;;;;;;;;;;;;;6.32;nan;102021.97;5046571;28;19921;-86
2023/12/07 06:58:24;;;;;;;;;;;;;;;6.33;nan;102024.44;5046911;28;19973;-87
2023/12/07 07:00:50;;;;;;;;;;;;;;;6.34;nan;102019.94;5047038;28;19917;-87
2023/12/07 07:03:15;;;;;;;;;;;;;;;6.35;nan;102022.44;5037749;28;19975;-86
2023/12/07 07:05:40;;;;;;;;;;;;;;;6.37;nan;102027.56;5055791;28;19922;-87
2023/12/07 07:08:07;;;;;;;;;;;;;;;6.39;nan;102032.69;5041522;28;19924;-86
2023/12/07 07:10:33;;;;;;;;;;;;;;;6.42;nan;102034.97;5038830;28;20042;-86
2023/12/07 07:13:04;;;;;;;;;;;;;;;6.42;nan;102035.78;5046452;28;20013;-86
2023/12/07 07:15:33;;;;;;;;;;;;;;;6.41;nan;102031.47;5040924;28;19923;-87
2023/12/07 07:17:58;;;;;;;;;;;;;;;6.38;nan;102031.88;5056165;28;19925;-87
2023/12/07 07:20:24;;;;;;;;;;;;;;;6.39;nan;102043.34;5061627;28;19916;-86
2023/12/07 07:22:50;;;;;;;;;;;;;;;6.40;nan;102037.81;5054049;28;20172;-86
2023/12/07 07:25:16;;;;;;;;;;;;;;;6.44;nan;102036.41;5044310;28;19921;-86
2023/12/07 07:27:41;;;;;;;;;;;;;;;6.46;nan;102041.56;5023607;28;20310;-86
2023/12/07 07:30:08;;;;;;;;;;;;;;;6.46;nan;102038.91;5053514;28;19916;-87
2023/12/07 07:32:33;;;;;;;;;;;;;;;6.47;nan;102044.06;5042976;28;19917;-88
2023/12/07 07:34:59;;;;;;;;;;;;;;;6.47;nan;102040.56;5047096;28;19923;-87
2023/12/07 07:37:24;;;;;;;;;;;;;;;6.47;nan;102033.41;5058342;28;19913;-87
2023/12/07 07:39:50;;;;;;;;;;;;;;;6.49;nan;102038.53;5048964;28;19925;-86
2023/12/07 07:42:16;;;;;;;;;;;;;;;6.50;nan;102032.19;5049452;28;19952;-87
2023/12/07 07:44:41;;;;;;;;;;;;;;;6.48;nan;102035.06;5051236;28;20471;-87
2023/12/07 07:47:08;;;;;;;;;;;;;;;6.48;nan;102040.38;5044104;28;19923;-87
2023/12/07 07:49:33;;;;;;;;;;;;;;;6.50;nan;102040.19;5040398;28;19992;-86
2023/12/07 07:51:58;;;;;;;;;;;;;;;6.52;nan;102030.16;5048423;28;20004;-87
2023/12/07 07:54:24;;;;;;;;;;;;;;;6.53;nan;102035.31;5049169;28;19927;-87
2023/12/07 07:56:49;;;;;;;;;;;;;;;6.55;nan;102038.59;5047105;28;19924;-87
2023/12/07 07:59:15;;;;;;;;;;;;;;;6.55;nan;102037.78;5050702;28;19917;-87
2023/12/07 08:01:40;;;;;;;;;;;;;;;6.54;nan;102034.28;5047270;28;19921;-87
2023/12/07 08:04:06;;;;;;;;;;;;;;;6.56;nan;102031.44;5046836;28;19920;-87
2023/12/07 08:06:31;;;;;;;;;;;;;;;6.58;nan;102034.72;5049116;28;19929;-87
2023/12/07 08:08:56;;;;;;;;;;;;;;;6.59;nan;102044.34;5045997;28;20104;-86
2023/12/07 08:11:22;;;;;;;;;;;;;;;6.59;nan;102033.72;5046794;28;19920;-87
2023/12/07 08:13:47;;;;;;;;;;;;;;;6.60;nan;102035.34;5050355;28;19921;-88
2023/12/07 08:16:13;;;;;;;;;;;;;;;6.62;nan;102043.97;5050023;28;19966;-88
2023/12/07 08:18:38;;;;;;;;;;;;;;;6.63;nan;102049.09;5052429;28;19932;-88
2023/12/07 08:21:04;;;;;;;;;;;;;;;6.66;nan;102050.59;5044644;28;19925;-87
2023/12/07 08:23:30;;;;;;;;;;;;;;;6.68;nan;102061.88;5048173;28;19920;-87
2023/12/07 08:25:57;;;;;;;;;;;;;;;6.71;nan;102064.16;5046115;28;19967;-87
2023/12/07 08:28:22;;;;;;;;;;;;;;;6.75;nan;102060.09;5044089;28;19940;-87
2023/12/07 08:30:48;;;;;;;;;;;;;;;6.78;nan;102067.69;5048383;28;20385;-88
2023/12/07 08:33:14;;;;;;;;;;;;;;;6.79;nan;102061.34;5043933;28;20758;-87
2023/12/07 08:35:39;;;;;;;;;;;;;;;6.83;nan;102067.97;5048498;28;19993;-88
2023/12/07 08:38:05;;;;;;;;;;;;;;;6.81;nan;102064.66;5046839;28;19921;-88
2023/12/07 08:40:31;;;;;;;;;;;;;;;6.80;nan;102063.00;5054042;28;20581;-87
2023/12/07 08:42:57;;;;;;;;;;;;;;;6.85;nan;102062.44;5049243;28;19963;-87
2023/12/07 08:45:23;;;;;;;;;;;;;;;6.88;nan;102065.53;5042272;28;19927;-88
2023/12/07 08:47:49;;;;;;;;;;;;;;;6.90;nan;102063.50;5045157;28;19924;-88
2023/12/07 08:50:14;;;;;;;;;;;;;;;6.94;nan;102063.94;5047817;28;20381;-89
2023/12/07 08:52:39;;;;;;;;;;;;;;;6.98;nan;102060.69;5041171;28;19921;-88
2023/12/07 08:55:05;;;;;;;;;;;;;;;7.04;nan;102067.13;5041456;28;19971;-88
2023/12/07 08:57:30;;;;;;;;;;;;;;;7.07;nan;102061.41;5048796;28;20342;-88
2023/12/07 08:59:55;;;;;;;;;;;;;;;7.10;nan;102062.84;5046606;28;19924;-88
2023/12/07 09:02:21;;;;;;;;;;;;;;;7.07;nan;102069.41;5044763;28;19999;-87
2023/12/07 09:04:46;;;;;;;;;;;;;;;7.08;nan;102075.56;5056870;28;19947;-87
2023/12/07 09:07:15;;;;;;;;;;;;;;;7.11;nan;102073.31;5053099;28;20462;-87
2023/12/07 09:09:46;;;;;;;;;;;;;;;7.13;nan;102073.94;5047557;28;19917;-86
2023/12/07 09:12:12;;;;;;;;;;;;;;;7.17;nan;102077.88;5047935;28;19956;-88
2023/12/07 09:14:37;;;;;;;;;;;;;;;7.22;nan;102078.13;5053359;28;20360;-88
2023/12/07 09:17:02;;;;;;;;;;;;;;;7.23;nan;102078.97;5057136;28;19944;-89
2023/12/07 09:19:28;;;;;;;;;;;;;;;7.26;nan;102083.91;5050360;28;19974;-87
2023/12/07 09:21:53;;;;;;;;;;;;;;;7.28;nan;102081.84;5048036;28;19920;-88
2023/12/07 09:24:19;;;;;;;;;;;;;;;7.32;nan;102085.78;5040286;28;19932;-88
2023/12/07 09:26:45;;;;;;;;;;;;;;;7.34;nan;102085.59;5051520;28;19924;-89
2023/12/07 09:29:10;;;;;;;;;;;;;;;7.33;nan;102074.09;5045408;28;19924;-88
2023/12/07 09:31:35;;;;;;;;;;;;;;;7.33;nan;102082.09;5044475;28;19928;-88
2023/12/07 09:34:01;;;;;;;;;;;;;;;7.34;nan;102077.59;5046031;28;20112;-88
2023/12/07 09:36:27;;;;;;;;;;;;;;;7.37;nan;102078.03;5050001;28;20381;-88
2023/12/07 09:38:53;;;;;;;;;;;;;;;7.42;nan;102091.63;5050003;28;19918;-88
2023/12/07 09:41:19;;;;;;;;;;;;;;;7.40;nan;102090.97;5053007;28;19994;-88
2023/12/07 09:43:44;;;;;;;;;;;;;;;7.39;nan;102085.84;5040935;28;19925;-88
2023/12/07 09:46:10;;;;;;;;;;;;;;;7.43;nan;102089.78;5047358;28;20023;-87
2023/12/07 09:48:37;;;;;;;;;;;;;;;7.43;nan;102082.59;5052546;28;19927;-88
2023/12/07 09:51:03;;;;;;;;;;;;;;;7.42;nan;102083.63;5039754;28;19917;-87
2023/12/07 09:53:33;;;;;;;;;;;;;;;7.44;nan;102083.41;5041019;28;19925;-86
2023/12/07 09:55:58;;;;;;;;;;;;;;;7.44;nan;102080.75;5047053;28;19920;-87
2023/12/07 09:58:24;;;;;;;;;;;;;;;7.45;nan;102083.22;5038853;28;19923;-87
2023/12/07 10:00:49;;;;;;;;;;;;;;;7.48;nan;102076.66;5047479;28;19924;-86
2023/12/07 10:03:22;;;;;;;;;;;;;;;7.49;nan;102073.81;5044516;28;19917;-87
2023/12/07 10:05:57;;;;;;;;;;;;;;;7.55;nan;102077.56;5043360;28;19928;-87
2023/12/07 10:08:29;;;;;;;;;;;;;;;7.62;nan;102072.25;5035000;28;20814;-86
2023/12/07 10:11:21;;;;;;;;;;;;;;;7.62;nan;102070.41;5026135;28;20012;-87
2023/12/07 10:13:47;;;;;;;;;;;;;;;7.65;nan;102069.19;5038947;28;19920;-87
2023/12/07 10:16:14;;;;;;;;;;;;;;;7.66;nan;102068.16;5048075;28;19920;-87
2023/12/07 10:18:40;;;;;;;;;;;;;;;7.69;nan;102070.44;5023120;28;19964;-86
2023/12/07 10:21:07;;;;;;;;;;;;;;;7.74;nan;102076.03;5037928;28;19968;-88
2023/12/07 10:23:33;;;;;;;;;;;;;;;7.74;nan;102076.84;5045999;28;20664;-87
2023/12/07 10:25:59;;;;;;;;;;;;;;;7.75;nan;102077.66;5037511;28;19929;-86
2023/12/07 10:28:24;;;;;;;;;;;;;;;7.79;nan;102076.25;5052334;28;19970;-86
2023/12/07 10:30:50;;;;;;;;;;;;;;;7.80;nan;102076.03;5042427;28;19934;-87
2023/12/07 10:33:15;;;;;;;;;;;;;;;7.82;nan;102070.50;5057297;28;19927;-86
2023/12/07 10:35:44;;;;;;;;;;;;;;;7.84;nan;102069.28;5050432;28;20499;-86
2023/12/07 10:38:09;;;;;;;;;;;;;;;7.87;nan;102076.91;5058114;28;20592;-87
2023/12/07 10:40:35;;;;;;;;;;;;;;;7.90;nan;102081.03;5051909;28;19917;-87
2023/12/07 10:43:04;;;;;;;;;;;;;;;7.91;nan;102076.53;5036494;28;19926;-86
2023/12/07 10:45:30;;;;;;;;;;;;;;;7.93;nan;102079.81;5052672;28;19925;-87
2023/12/07 10:48:02;;;;;;;;;;;;;;;7.93;nan;102080.63;5051753;28;19928;-86
2023/12/07 10:50:31;;;;;;;;;;;;;;;7.96;nan;102085.56;5044276;28;20003;-87
2023/12/07 10:52:57;;;;;;;;;;;;;;;7.93;nan;102088.66;5051692;28;20401;-86
2023/12/07 10:55:30;;;;;;;;;;;;;;;7.88;nan;102081.22;5033133;28;19964;-87
2023/12/07 10:57:56;;;;;;;;;;;;;;;7.88;nan;102081.22;5054423;28;20536;-86
2023/12/07 11:00:27;;;;;;;;;;;;;;;7.92;nan;102081.66;5051151;28;19917;-86
2023/12/07 11:02:53;;;;;;;;;;;;;;;7.88;nan;102078.53;5044190;28;20391;-86
2023/12/07 11:05:19;;;;;;;;;;;;;;;7.83;nan;102078.31;5053737;28;19933;-87
2023/12/07 11:07:50;;;;;;;;;;;;;;;7.77;nan;102080.97;5048022;28;19925;-86
2023/12/07 11:10:20;;;;;;;;;;;;;;;7.71;nan;102071.06;5047064;28;19944;-86
2023/12/07 11:12:49;;;;;;;;;;;;;;;7.68;nan;102074.94;5052683;28;20446;-86
2023/12/07 11:15:16;;;;;;;;;;;;;;;7.67;nan;102069.81;5049004;28;19921;-86
2023/12/07 11:17:54;;;;;;;;;;;;;;;7.66;nan;102065.50;5018032;28;19921;-86
2023/12/07 11:20:20;;;;;;;;;;;;;;;7.65;nan;102062.00;5047299;28;19920;-85
2023/12/07 11:22:48;;;;;;;;;;;;;;;7.62;nan;102057.06;5043452;28;19917;-86
2023/12/07 11:25:14;;;;;;;;;;;;;;;7.58;nan;102061.16;5031181;28;19936;-86
2023/12/07 11:27:40;;;;;;;;;;;;;;;7.61;nan;102062.59;5051314;28;20305;-87
2023/12/07 11:30:06;;;;;;;;;;;;;;;7.62;nan;102061.56;5042162;28;20649;-86
2023/12/07 11:32:32;;;;;;;;;;;;;;;7.63;nan;102063.22;5045480;28;19938;-86
2023/12/07 11:35:04;;;;;;;;;;;;;;;7.63;nan;102060.56;5041781;28;20511;-86
2023/12/07 11:37:49;;;;;;;;;;;;;;;7.62;nan;102062.41;5049592;28;20012;-87
2023/12/07 11:40:15;;;;;;;;;;;;;;;7.64;nan;102062.19;5043820;28;19944;-86
2023/12/07 11:42:43;;;;;;;;;;;;;;;7.62;nan;102061.56;5048860;28;20572;-87
2023/12/07 11:45:08;;;;;;;;;;;;;;;7.61;nan;102063.44;5049312;28;19950;-86
2023/12/07 11:47:33;;;;;;;;;;;;;;;7.65;nan;102069.19;5034119;28;20460;-87
2023/12/07 11:50:02;;;;;;;;;;;;;;;7.72;nan;102064.69;5053078;28;19959;-87
2023/12/07 11:52:28;;;;;;;;;;;;;;;7.75;nan;102062.47;5046990;28;20031;-88
2023/12/07 11:54:53;;;;;;;;;;;;;;;7.78;nan;102066.59;5050707;28;20428;-87
2023/12/07 11:57:18;;;;;;;;;;;;;;;7.74;nan;102058.16;5048232;28;20055;-87
2023/12/07 11:59:44;;;;;;;;;;;;;;;7.71;nan;102063.06;5053214;28;19925;-87
2023/12/07 12:02:10;;;;;;;;;;;;;;;7.72;nan;102059.34;5031082;28;20011;-88
2023/12/07 12:04:36;;;;;;;;;;;;;;;7.75;nan;102056.31;5041997;28;20008;-88
2023/12/07 12:07:02;;;;;;;;;;;;;;;7.78;nan;102064.75;5048135;28;19938;-89
2023/12/07 12:09:27;;;;;;;;;;;;;;;7.82;nan;102057.16;5045590;28;19913;-89
2023/12/07 12:11:52;;;;;;;;;;;;;;;7.81;nan;102063.53;5050717;28;19916;-89
2023/12/07 12:14:18;;;;;;;;;;;;;;;7.84;nan;102050.63;5042819;28;19979;-88
2023/12/07 12:16:45;;;;;;;;;;;;;;;7.87;nan;102057.41;5047098;28;19924;-89
2023/12/07 12:19:10;;;;;;;;;;;;;;;7.88;nan;102049.19;5041157;28;19916;-89
2023/12/07 12:21:38;;;;;;;;;;;;;;;7.91;nan;102050.66;5049270;28;19920;-88
2023/12/07 12:24:04;;;;;;;;;;;;;;;7.95;nan;102056.41;5045858;28;19916;-89
2023/12/07 12:26:29;;;;;;;;;;;;;;;7.95;nan;102067.91;5049255;28;19932;-88
2023/12/07 12:28:55;;;;;;;;;;;;;;;7.97;nan;102067.72;5045930;28;19944;-89
2023/12/07 12:31:22;;;;;;;;;;;;;;;7.92;nan;102065.66;5042914;28;19924;-88
2023/12/07 12:33:49;;;;;;;;;;;;;;;7.89;nan;102064.19;5047044;28;19917;-89
2023/12/07 12:36:16;;;;;;;;;;;;;;;7.86;nan;102063.75;5038233;28;19917;-89
2023/12/07 12:38:41;;;;;;;;;;;;;;;7.85;nan;102062.09;5050849;28;19913;-89
2023/12/07 12:41:08;;;;;;;;;;;;;;;7.85;nan;102070.13;5040727;28;19916;-89
2023/12/07 12:43:34;;;;;;;;;;;;;;;7.85;nan;102067.44;5023756;28;20070;-89
2023/12/07 12:45:59;;;;;;;;;;;;;;;7.86;nan;102061.09;5044484;28;20374;-89
2023/12/07 12:48:24;;;;;;;;;;;;;;;7.88;nan;102067.88;5037386;28;20584;-89
2023/12/07 12:50:50;;;;;;;;;;;;;;;7.89;nan;102063.34;5052074;28;19923;-89
2023/12/07 12:53:15;;;;;;;;;;;;;;;7.90;nan;102065.03;5034760;28;20013;-89
2023/12/07 12:55:41;;;;;;;;;;;;;;;7.93;nan;102056.63;5042481;28;19948;-89
2023/12/07 12:58:07;;;;;;;;;;;;;;;7.97;nan;102063.19;5044486;28;20384;-89
2023/12/07 13:00:33;;;;;;;;;;;;;;;8.00;nan;102060.13;5023292;28;19924;-89
2023/12/07 13:03:03;;;;;;;;;;;;;;;8.03;nan;102058.91;5048049;28;19928;-89